sensor_id;sensor_type;location;lat;lon;timestamp;temperature;humidity
80495;DHT22;69819;48.798;11.770;2024-01-30T00:01:51;3.40;55.10
80495;DHT22;69819;48.798;11.770;2024-01-30T00:04:17;3.40;55.00
80495;DHT22;69819;48.798;11.770;2024-01-30T00:06:46;3.40;55.00
80495;DHT22;69819;48.798;11.770;2024-01-30T00:09:11;3.50;55.10
80495;DHT22;69819;48.798;11.770;2024-01-30T00:11:38;3.50;55.00
80495;DHT22;69819;48.798;11.770;2024-01-30T00:14:04;3.50;54.90
80495;DHT22;69819;48.798;11.770;2024-01-30T00:16:30;3.50;54.90
80495;DHT22;69819;48.798;11.770;2024-01-30T00:18:56;3.60;54.90
80495;DHT22;69819;48.798;11.770;2024-01-30T00:21:22;3.60;54.90
80495;DHT22;69819;48.798;11.770;2024-01-30T00:23:49;3.60;54.90
80495;DHT22;69819;48.798;11.770;2024-01-30T00:26:15;3.60;54.80
80495;DHT22;69819;48.798;11.770;2024-01-30T00:28:41;3.70;54.90
80495;DHT22;69819;48.798;11.770;2024-01-30T00:31:08;3.70;54.90
80495;DHT22;69819;48.798;11.770;2024-01-30T00:33:38;3.70;54.80
80495;DHT22;69819;48.798;11.770;2024-01-30T00:36:05;3.70;54.80
80495;DHT22;69819;48.798;11.770;2024-01-30T00:38:32;3.70;54.80
80495;DHT22;69819;48.798;11.770;2024-01-30T00:40:58;3.70;54.80
80495;DHT22;69819;48.798;11.770;2024-01-30T00:43:24;3.70;54.80
80495;DHT22;69819;48.798;11.770;2024-01-30T00:45:52;3.70;55.40
80495;DHT22;69819;48.798;11.770;2024-01-30T00:48:18;3.60;54.70
80495;DHT22;69819;48.798;11.770;2024-01-30T00:50:44;3.60;54.70
80495;DHT22;69819;48.798;11.770;2024-01-30T00:53:10;3.60;54.70
80495;DHT22;69819;48.798;11.770;2024-01-30T00:55:36;3.50;54.60
80495;DHT22;69819;48.798;11.770;2024-01-30T00:58:02;3.50;54.60
80495;DHT22;69819;48.798;11.770;2024-01-30T01:00:28;3.50;54.60
80495;DHT22;69819;48.798;11.770;2024-01-30T01:02:58;3.40;54.60
80495;DHT22;69819;48.798;11.770;2024-01-30T01:05:25;3.40;54.70
80495;DHT22;69819;48.798;11.770;2024-01-30T01:07:51;3.40;54.70
80495;DHT22;69819;48.798;11.770;2024-01-30T01:10:17;3.30;54.60
80495;DHT22;69819;48.798;11.770;2024-01-30T01:12:44;3.30;54.60
80495;DHT22;69819;48.798;11.770;2024-01-30T01:15:10;3.20;54.60
80495;DHT22;69819;48.798;11.770;2024-01-30T01:17:40;3.20;54.60
80495;DHT22;69819;48.798;11.770;2024-01-30T01:20:07;3.20;54.70
80495;DHT22;69819;48.798;11.770;2024-01-30T01:22:33;3.20;54.60
80495;DHT22;69819;48.798;11.770;2024-01-30T01:25:00;3.10;54.60
80495;DHT22;69819;48.798;11.770;2024-01-30T01:27:26;3.10;54.60
80495;DHT22;69819;48.798;11.770;2024-01-30T01:29:53;3.10;54.70
80495;DHT22;69819;48.798;11.770;2024-01-30T01:32:19;3.10;54.70
80495;DHT22;69819;48.798;11.770;2024-01-30T01:34:45;3.10;54.80
80495;DHT22;69819;48.798;11.770;2024-01-30T01:37:11;3.10;55.30
80495;DHT22;69819;48.798;11.770;2024-01-30T01:39:37;3.10;54.80
80495;DHT22;69819;48.798;11.770;2024-01-30T01:42:03;3.10;54.80
80495;DHT22;69819;48.798;11.770;2024-01-30T01:44:29;3.10;54.90
80495;DHT22;69819;48.798;11.770;2024-01-30T01:46:56;3.10;54.90
80495;DHT22;69819;48.798;11.770;2024-01-30T01:49:24;3.10;55.00
80495;DHT22;69819;48.798;11.770;2024-01-30T01:51:54;3.10;54.90
80495;DHT22;69819;48.798;11.770;2024-01-30T01:54:23;3.10;54.90
80495;DHT22;69819;48.798;11.770;2024-01-30T01:56:51;3.10;54.90
80495;DHT22;69819;48.798;11.770;2024-01-30T01:59:20;3.10;54.90
80495;DHT22;69819;48.798;11.770;2024-01-30T02:01:46;3.10;54.90
80495;DHT22;69819;48.798;11.770;2024-01-30T02:04:15;3.00;54.80
80495;DHT22;69819;48.798;11.770;2024-01-30T02:06:42;3.00;54.80
80495;DHT22;69819;48.798;11.770;2024-01-30T02:09:08;3.00;54.90
80495;DHT22;69819;48.798;11.770;2024-01-30T02:11:34;3.00;54.90
80495;DHT22;69819;48.798;11.770;2024-01-30T02:14:04;2.90;54.70
80495;DHT22;69819;48.798;11.770;2024-01-30T02:16:33;2.90;55.40
80495;DHT22;69819;48.798;11.770;2024-01-30T02:18:59;2.90;54.80
80495;DHT22;69819;48.798;11.770;2024-01-30T02:21:25;2.80;54.60
80495;DHT22;69819;48.798;11.770;2024-01-30T02:23:51;2.80;54.60
80495;DHT22;69819;48.798;11.770;2024-01-30T02:26:18;2.80;54.60
80495;DHT22;69819;48.798;11.770;2024-01-30T02:28:44;2.80;54.50
80495;DHT22;69819;48.798;11.770;2024-01-30T02:31:10;2.70;54.40
80495;DHT22;69819;48.798;11.770;2024-01-30T02:33:36;2.60;54.40
80495;DHT22;69819;48.798;11.770;2024-01-30T02:36:01;2.60;54.40
80495;DHT22;69819;48.798;11.770;2024-01-30T02:38:27;2.50;54.40
80495;DHT22;69819;48.798;11.770;2024-01-30T02:40:54;2.50;54.50
80495;DHT22;69819;48.798;11.770;2024-01-30T02:43:20;2.50;54.50
80495;DHT22;69819;48.798;11.770;2024-01-30T02:45:46;2.40;54.50
80495;DHT22;69819;48.798;11.770;2024-01-30T02:48:12;2.40;54.90
80495;DHT22;69819;48.798;11.770;2024-01-30T02:50:37;2.50;54.70
80495;DHT22;69819;48.798;11.770;2024-01-30T02:53:03;2.40;54.60
80495;DHT22;69819;48.798;11.770;2024-01-30T02:55:29;2.40;54.50
80495;DHT22;69819;48.798;11.770;2024-01-30T02:57:55;2.40;54.50
80495;DHT22;69819;48.798;11.770;2024-01-30T03:00:21;2.30;54.40
80495;DHT22;69819;48.798;11.770;2024-01-30T03:02:46;2.30;54.40
80495;DHT22;69819;48.798;11.770;2024-01-30T03:05:12;2.20;54.20
80495;DHT22;69819;48.798;11.770;2024-01-30T03:07:38;2.20;54.20
80495;DHT22;69819;48.798;11.770;2024-01-30T03:10:05;2.20;54.20
80495;DHT22;69819;48.798;11.770;2024-01-30T03:12:31;2.10;54.20
80495;DHT22;69819;48.798;11.770;2024-01-30T03:14:58;2.10;54.40
80495;DHT22;69819;48.798;11.770;2024-01-30T03:17:23;2.00;54.40
80495;DHT22;69819;48.798;11.770;2024-01-30T03:19:50;2.00;54.50
80495;DHT22;69819;48.798;11.770;2024-01-30T03:22:16;2.00;55.20
80495;DHT22;69819;48.798;11.770;2024-01-30T03:24:42;2.00;54.70
80495;DHT22;69819;48.798;11.770;2024-01-30T03:27:08;2.10;54.80
80495;DHT22;69819;48.798;11.770;2024-01-30T03:29:34;2.10;54.90
80495;DHT22;69819;48.798;11.770;2024-01-30T03:32:00;2.10;55.00
80495;DHT22;69819;48.798;11.770;2024-01-30T03:34:26;2.10;54.90
80495;DHT22;69819;48.798;11.770;2024-01-30T03:36:52;2.10;54.90
80495;DHT22;69819;48.798;11.770;2024-01-30T03:39:17;2.10;54.90
80495;DHT22;69819;48.798;11.770;2024-01-30T03:41:44;2.10;54.90
80495;DHT22;69819;48.798;11.770;2024-01-30T03:44:10;2.10;54.80
80495;DHT22;69819;48.798;11.770;2024-01-30T03:46:36;2.10;54.90
80495;DHT22;69819;48.798;11.770;2024-01-30T03:49:02;2.10;54.80
80495;DHT22;69819;48.798;11.770;2024-01-30T03:51:27;2.10;54.80
80495;DHT22;69819;48.798;11.770;2024-01-30T03:53:53;2.10;54.80
80495;DHT22;69819;48.798;11.770;2024-01-30T03:56:19;2.10;54.90
80495;DHT22;69819;48.798;11.770;2024-01-30T03:58:45;2.10;54.90
80495;DHT22;69819;48.798;11.770;2024-01-30T04:01:14;2.10;54.90
80495;DHT22;69819;48.798;11.770;2024-01-30T04:03:40;2.10;55.00
80495;DHT22;69819;48.798;11.770;2024-01-30T04:06:07;2.10;54.90
80495;DHT22;69819;48.798;11.770;2024-01-30T04:08:33;2.10;54.90
80495;DHT22;69819;48.798;11.770;2024-01-30T04:11:03;2.10;54.90
80495;DHT22;69819;48.798;11.770;2024-01-30T04:13:31;2.10;55.00
80495;DHT22;69819;48.798;11.770;2024-01-30T04:16:01;2.10;55.00
80495;DHT22;69819;48.798;11.770;2024-01-30T04:18:28;2.20;55.00
80495;DHT22;69819;48.798;11.770;2024-01-30T04:20:54;2.10;55.40
80495;DHT22;69819;48.798;11.770;2024-01-30T04:23:20;2.10;54.80
80495;DHT22;69819;48.798;11.770;2024-01-30T04:25:46;2.20;55.00
80495;DHT22;69819;48.798;11.770;2024-01-30T04:28:12;2.10;55.00
80495;DHT22;69819;48.798;11.770;2024-01-30T04:30:38;2.10;54.90
80495;DHT22;69819;48.798;11.770;2024-01-30T04:33:04;2.20;55.10
80495;DHT22;69819;48.798;11.770;2024-01-30T04:35:30;2.20;55.10
80495;DHT22;69819;48.798;11.770;2024-01-30T04:37:56;2.20;55.10
80495;DHT22;69819;48.798;11.770;2024-01-30T04:40:22;2.20;55.10
80495;DHT22;69819;48.798;11.770;2024-01-30T04:42:48;2.20;55.20
80495;DHT22;69819;48.798;11.770;2024-01-30T04:45:13;2.20;55.10
80495;DHT22;69819;48.798;11.770;2024-01-30T04:47:39;2.30;55.30
80495;DHT22;69819;48.798;11.770;2024-01-30T04:50:08;2.30;55.20
80495;DHT22;69819;48.798;11.770;2024-01-30T04:52:35;2.30;55.20
80495;DHT22;69819;48.798;11.770;2024-01-30T04:55:01;2.30;55.10
80495;DHT22;69819;48.798;11.770;2024-01-30T04:57:27;2.30;55.00
80495;DHT22;69819;48.798;11.770;2024-01-30T04:59:53;2.30;55.00
80495;DHT22;69819;48.798;11.770;2024-01-30T05:02:19;2.20;54.90
80495;DHT22;69819;48.798;11.770;2024-01-30T05:04:45;2.20;54.90
80495;DHT22;69819;48.798;11.770;2024-01-30T05:07:10;2.30;54.90
80495;DHT22;69819;48.798;11.770;2024-01-30T05:09:36;2.20;54.90
80495;DHT22;69819;48.798;11.770;2024-01-30T05:12:02;2.20;54.90
80495;DHT22;69819;48.798;11.770;2024-01-30T05:14:28;2.20;54.90
80495;DHT22;69819;48.798;11.770;2024-01-30T05:16:54;2.20;54.80
80495;DHT22;69819;48.798;11.770;2024-01-30T05:19:20;2.10;54.60
80495;DHT22;69819;48.798;11.770;2024-01-30T05:21:48;2.10;54.60
80495;DHT22;69819;48.798;11.770;2024-01-30T05:24:14;2.10;54.60
80495;DHT22;69819;48.798;11.770;2024-01-30T05:26:40;2.10;54.50
80495;DHT22;69819;48.798;11.770;2024-01-30T05:29:07;2.00;54.40
80495;DHT22;69819;48.798;11.770;2024-01-30T05:31:33;2.00;54.50
80495;DHT22;69819;48.798;11.770;2024-01-30T05:34:00;2.00;54.60
80495;DHT22;69819;48.798;11.770;2024-01-30T05:36:26;1.90;54.70
80495;DHT22;69819;48.798;11.770;2024-01-30T05:38:51;1.90;54.70
80495;DHT22;69819;48.798;11.770;2024-01-30T05:41:17;1.90;54.70
80495;DHT22;69819;48.798;11.770;2024-01-30T05:43:43;1.90;54.70
80495;DHT22;69819;48.798;11.770;2024-01-30T05:46:09;1.90;54.70
80495;DHT22;69819;48.798;11.770;2024-01-30T05:48:35;1.90;54.60
80495;DHT22;69819;48.798;11.770;2024-01-30T05:51:02;1.90;54.60
80495;DHT22;69819;48.798;11.770;2024-01-30T05:53:29;1.90;54.70
80495;DHT22;69819;48.798;11.770;2024-01-30T05:55:55;1.90;54.70
80495;DHT22;69819;48.798;11.770;2024-01-30T05:58:21;1.80;54.70
80495;DHT22;69819;48.798;11.770;2024-01-30T06:00:47;1.90;54.90
80495;DHT22;69819;48.798;11.770;2024-01-30T06:03:12;1.80;54.70
80495;DHT22;69819;48.798;11.770;2024-01-30T06:05:38;1.80;54.70
80495;DHT22;69819;48.798;11.770;2024-01-30T06:08:04;1.80;54.80
80495;DHT22;69819;48.798;11.770;2024-01-30T06:10:30;1.80;54.90
80495;DHT22;69819;48.798;11.770;2024-01-30T06:12:56;1.80;54.90
80495;DHT22;69819;48.798;11.770;2024-01-30T06:15:22;1.80;54.90
80495;DHT22;69819;48.798;11.770;2024-01-30T06:17:48;1.80;54.90
80495;DHT22;69819;48.798;11.770;2024-01-30T06:20:14;1.80;54.90
80495;DHT22;69819;48.798;11.770;2024-01-30T06:22:39;1.80;54.90
80495;DHT22;69819;48.798;11.770;2024-01-30T06:25:05;1.80;54.90
80495;DHT22;69819;48.798;11.770;2024-01-30T06:27:31;1.80;54.90
80495;DHT22;69819;48.798;11.770;2024-01-30T06:29:57;1.80;54.90
80495;DHT22;69819;48.798;11.770;2024-01-30T06:32:23;1.80;54.90
80495;DHT22;69819;48.798;11.770;2024-01-30T06:34:48;1.90;54.90
80495;DHT22;69819;48.798;11.770;2024-01-30T06:37:14;1.90;55.00
80495;DHT22;69819;48.798;11.770;2024-01-30T06:39:40;1.90;54.90
80495;DHT22;69819;48.798;11.770;2024-01-30T06:42:05;1.90;54.90
80495;DHT22;69819;48.798;11.770;2024-01-30T06:44:31;1.90;55.00
80495;DHT22;69819;48.798;11.770;2024-01-30T06:46:57;1.90;55.20
80495;DHT22;69819;48.798;11.770;2024-01-30T06:49:23;1.90;55.10
80495;DHT22;69819;48.798;11.770;2024-01-30T06:51:48;1.90;55.20
80495;DHT22;69819;48.798;11.770;2024-01-30T06:54:14;1.90;55.20
80495;DHT22;69819;48.798;11.770;2024-01-30T06:56:42;1.90;55.20
80495;DHT22;69819;48.798;11.770;2024-01-30T06:59:07;1.90;55.20
80495;DHT22;69819;48.798;11.770;2024-01-30T07:01:33;2.00;55.40
80495;DHT22;69819;48.798;11.770;2024-01-30T07:03:59;2.00;55.50
80495;DHT22;69819;48.798;11.770;2024-01-30T07:06:25;2.00;55.60
80495;DHT22;69819;48.798;11.770;2024-01-30T07:08:51;2.10;55.90
80495;DHT22;69819;48.798;11.770;2024-01-30T07:11:20;2.20;56.40
80495;DHT22;69819;48.798;11.770;2024-01-30T07:13:47;2.30;57.20
80495;DHT22;69819;48.798;11.770;2024-01-30T07:16:14;2.40;57.80
80495;DHT22;69819;48.798;11.770;2024-01-30T07:18:40;2.70;58.80
80495;DHT22;69819;48.798;11.770;2024-01-30T07:21:06;2.90;59.40
80495;DHT22;69819;48.798;11.770;2024-01-30T07:23:32;3.20;59.40
80495;DHT22;69819;48.798;11.770;2024-01-30T07:25:59;3.50;59.50
80495;DHT22;69819;48.798;11.770;2024-01-30T07:28:26;3.80;59.50
80495;DHT22;69819;48.798;11.770;2024-01-30T07:30:52;4.10;59.80
80495;DHT22;69819;48.798;11.770;2024-01-30T07:33:18;4.40;60.00
80495;DHT22;69819;48.798;11.770;2024-01-30T07:35:46;4.80;59.80
80495;DHT22;69819;48.798;11.770;2024-01-30T07:38:11;5.10;59.30
80495;DHT22;69819;48.798;11.770;2024-01-30T07:40:37;5.40;58.90
80495;DHT22;69819;48.798;11.770;2024-01-30T07:43:03;5.70;58.50
80495;DHT22;69819;48.798;11.770;2024-01-30T07:45:29;6.00;58.20
80495;DHT22;69819;48.798;11.770;2024-01-30T07:47:58;6.30;58.00
80495;DHT22;69819;48.798;11.770;2024-01-30T07:50:25;6.60;57.80
80495;DHT22;69819;48.798;11.770;2024-01-30T07:52:51;6.80;57.50
80495;DHT22;69819;48.798;11.770;2024-01-30T07:55:23;7.10;57.40
80495;DHT22;69819;48.798;11.770;2024-01-30T07:57:57;7.40;57.20
80495;DHT22;69819;48.798;11.770;2024-01-30T08:00:22;7.70;57.30
80495;DHT22;69819;48.798;11.770;2024-01-30T08:02:48;8.00;57.10
80495;DHT22;69819;48.798;11.770;2024-01-30T08:05:14;8.20;57.00
80495;DHT22;69819;48.798;11.770;2024-01-30T08:07:43;8.40;57.10
80495;DHT22;69819;48.798;11.770;2024-01-30T08:10:11;8.70;57.10
80495;DHT22;69819;48.798;11.770;2024-01-30T08:12:38;9.00;57.00
80495;DHT22;69819;48.798;11.770;2024-01-30T08:15:05;9.30;56.70
80495;DHT22;69819;48.798;11.770;2024-01-30T08:17:31;9.50;56.30
80495;DHT22;69819;48.798;11.770;2024-01-30T08:19:57;9.70;56.10
80495;DHT22;69819;48.798;11.770;2024-01-30T08:22:22;9.90;55.90
80495;DHT22;69819;48.798;11.770;2024-01-30T08:24:48;10.10;54.70
80495;DHT22;69819;48.798;11.770;2024-01-30T08:27:14;10.30;54.40
80495;DHT22;69819;48.798;11.770;2024-01-30T08:29:40;10.40;54.50
80495;DHT22;69819;48.798;11.770;2024-01-30T08:32:06;10.60;54.50
80495;DHT22;69819;48.798;11.770;2024-01-30T08:34:32;10.80;54.30
80495;DHT22;69819;48.798;11.770;2024-01-30T08:36:58;11.00;54.30
80495;DHT22;69819;48.798;11.770;2024-01-30T08:39:24;11.20;54.20
80495;DHT22;69819;48.798;11.770;2024-01-30T08:41:50;11.30;54.00
80495;DHT22;69819;48.798;11.770;2024-01-30T08:44:16;11.50;53.70
80495;DHT22;69819;48.798;11.770;2024-01-30T08:46:46;11.60;53.50
80495;DHT22;69819;48.798;11.770;2024-01-30T08:49:13;11.70;53.30
80495;DHT22;69819;48.798;11.770;2024-01-30T08:51:39;11.90;53.30
80495;DHT22;69819;48.798;11.770;2024-01-30T08:54:05;12.00;53.30
80495;DHT22;69819;48.798;11.770;2024-01-30T08:56:31;12.10;53.10
80495;DHT22;69819;48.798;11.770;2024-01-30T08:58:57;12.30;53.60
80495;DHT22;69819;48.798;11.770;2024-01-30T09:01:22;12.40;52.90
80495;DHT22;69819;48.798;11.770;2024-01-30T09:03:48;12.50;52.50
80495;DHT22;69819;48.798;11.770;2024-01-30T09:06:14;12.60;52.20
80495;DHT22;69819;48.798;11.770;2024-01-30T09:08:40;12.70;52.00
80495;DHT22;69819;48.798;11.770;2024-01-30T09:11:13;12.70;51.80
80495;DHT22;69819;48.798;11.770;2024-01-30T09:13:39;12.70;51.20
80495;DHT22;69819;48.798;11.770;2024-01-30T09:16:06;12.70;51.40
80495;DHT22;69819;48.798;11.770;2024-01-30T09:18:32;12.70;51.30
80495;DHT22;69819;48.798;11.770;2024-01-30T09:20:59;12.70;51.20
80495;DHT22;69819;48.798;11.770;2024-01-30T09:23:27;12.70;51.00
80495;DHT22;69819;48.798;11.770;2024-01-30T09:25:53;12.70;51.10
80495;DHT22;69819;48.798;11.770;2024-01-30T09:28:19;12.60;51.00
80495;DHT22;69819;48.798;11.770;2024-01-30T09:30:45;12.60;51.00
80495;DHT22;69819;48.798;11.770;2024-01-30T09:33:11;12.60;50.80
80495;DHT22;69819;48.798;11.770;2024-01-30T09:35:37;12.70;50.80
80495;DHT22;69819;48.798;11.770;2024-01-30T09:38:03;12.60;50.70
80495;DHT22;69819;48.798;11.770;2024-01-30T09:40:29;12.70;50.90
80495;DHT22;69819;48.798;11.770;2024-01-30T09:42:55;12.70;50.90
80495;DHT22;69819;48.798;11.770;2024-01-30T09:45:25;12.70;50.90
80495;DHT22;69819;48.798;11.770;2024-01-30T09:47:52;12.80;50.80
80495;DHT22;69819;48.798;11.770;2024-01-30T09:50:19;12.90;51.00
80495;DHT22;69819;48.798;11.770;2024-01-30T09:52:46;12.90;50.80
80495;DHT22;69819;48.798;11.770;2024-01-30T09:55:13;13.00;50.70
80495;DHT22;69819;48.798;11.770;2024-01-30T09:57:39;13.00;50.50
80495;DHT22;69819;48.798;11.770;2024-01-30T10:00:06;13.10;50.50
80495;DHT22;69819;48.798;11.770;2024-01-30T10:02:34;13.10;50.30
80495;DHT22;69819;48.798;11.770;2024-01-30T10:05:01;13.00;50.00
80495;DHT22;69819;48.798;11.770;2024-01-30T10:07:27;13.00;49.90
80495;DHT22;69819;48.798;11.770;2024-01-30T10:09:53;13.00;49.90
80495;DHT22;69819;48.798;11.770;2024-01-30T10:12:22;12.90;49.90
80495;DHT22;69819;48.798;11.770;2024-01-30T10:14:48;12.80;49.80
80495;DHT22;69819;48.798;11.770;2024-01-30T10:17:14;12.80;49.80
80495;DHT22;69819;48.798;11.770;2024-01-30T10:19:41;12.70;49.70
80495;DHT22;69819;48.798;11.770;2024-01-30T10:22:07;12.60;49.50
80495;DHT22;69819;48.798;11.770;2024-01-30T10:24:34;12.60;49.60
80495;DHT22;69819;48.798;11.770;2024-01-30T10:27:01;12.50;49.60
80495;DHT22;69819;48.798;11.770;2024-01-30T10:29:27;12.40;49.40
80495;DHT22;69819;48.798;11.770;2024-01-30T10:32:04;12.20;49.30
80495;DHT22;69819;48.798;11.770;2024-01-30T10:34:32;12.10;49.10
80495;DHT22;69819;48.798;11.770;2024-01-30T10:37:11;12.00;49.40
80495;DHT22;69819;48.798;11.770;2024-01-30T10:39:46;11.80;49.20
80495;DHT22;69819;48.798;11.770;2024-01-30T10:42:17;11.70;49.30
80495;DHT22;69819;48.798;11.770;2024-01-30T10:44:56;11.60;49.40
80495;DHT22;69819;48.798;11.770;2024-01-30T10:47:27;11.50;49.50
80495;DHT22;69819;48.798;11.770;2024-01-30T10:49:54;11.40;49.70
80495;DHT22;69819;48.798;11.770;2024-01-30T10:52:23;11.30;49.90
80495;DHT22;69819;48.798;11.770;2024-01-30T10:54:54;11.20;50.00
80495;DHT22;69819;48.798;11.770;2024-01-30T10:57:23;11.10;50.10
80495;DHT22;69819;48.798;11.770;2024-01-30T10:59:52;11.00;50.20
80495;DHT22;69819;48.798;11.770;2024-01-30T11:02:22;10.90;50.30
80495;DHT22;69819;48.798;11.770;2024-01-30T11:04:49;10.90;51.00
80495;DHT22;69819;48.798;11.770;2024-01-30T11:07:25;10.80;50.60
80495;DHT22;69819;48.798;11.770;2024-01-30T11:09:53;10.80;50.70
80495;DHT22;69819;48.798;11.770;2024-01-30T11:12:29;10.80;50.80
80495;DHT22;69819;48.798;11.770;2024-01-30T11:15:06;10.70;50.90
80495;DHT22;69819;48.798;11.770;2024-01-30T11:20:19;10.70;50.80
80495;DHT22;69819;48.798;11.770;2024-01-30T11:22:46;10.70;51.10
80495;DHT22;69819;48.798;11.770;2024-01-30T11:25:17;10.70;51.20
80495;DHT22;69819;48.798;11.770;2024-01-30T11:27:46;10.90;51.50
80495;DHT22;69819;48.798;11.770;2024-01-30T11:30:31;10.80;52.10
80495;DHT22;69819;48.798;11.770;2024-01-30T11:33:08;10.80;51.40
80495;DHT22;69819;48.798;11.770;2024-01-30T11:35:38;10.90;51.40
80495;DHT22;69819;48.798;11.770;2024-01-30T11:38:06;10.90;51.50
80495;DHT22;69819;48.798;11.770;2024-01-30T11:40:33;10.90;51.60
80495;DHT22;69819;48.798;11.770;2024-01-30T11:43:01;10.90;51.50
80495;DHT22;69819;48.798;11.770;2024-01-30T11:45:30;11.00;51.70
80495;DHT22;69819;48.798;11.770;2024-01-30T11:47:57;11.00;51.70
80495;DHT22;69819;48.798;11.770;2024-01-30T11:50:25;11.00;51.70
80495;DHT22;69819;48.798;11.770;2024-01-30T11:52:51;11.10;51.70
80495;DHT22;69819;48.798;11.770;2024-01-30T11:55:17;11.20;51.80
80495;DHT22;69819;48.798;11.770;2024-01-30T11:57:45;11.20;51.90
80495;DHT22;69819;48.798;11.770;2024-01-30T12:00:18;11.30;51.90
80495;DHT22;69819;48.798;11.770;2024-01-30T12:02:48;11.30;51.90
80495;DHT22;69819;48.798;11.770;2024-01-30T12:05:15;11.40;52.10
80495;DHT22;69819;48.798;11.770;2024-01-30T12:07:44;11.50;52.20
80495;DHT22;69819;48.798;11.770;2024-01-30T12:10:13;11.60;52.20
80495;DHT22;69819;48.798;11.770;2024-01-30T12:12:45;11.70;52.80
80495;DHT22;69819;48.798;11.770;2024-01-30T12:15:13;11.80;52.10
80495;DHT22;69819;48.798;11.770;2024-01-30T12:17:39;11.90;52.00
80495;DHT22;69819;48.798;11.770;2024-01-30T12:20:19;12.00;51.90
80495;DHT22;69819;48.798;11.770;2024-01-30T12:22:47;12.00;51.60
80495;DHT22;69819;48.798;11.770;2024-01-30T12:25:16;12.10;51.80
80495;DHT22;69819;48.798;11.770;2024-01-30T12:27:47;12.10;51.70
80495;DHT22;69819;48.798;11.770;2024-01-30T12:30:18;12.10;51.60
80495;DHT22;69819;48.798;11.770;2024-01-30T12:32:47;12.20;51.70
80495;DHT22;69819;48.798;11.770;2024-01-30T12:35:19;12.20;51.60
80495;DHT22;69819;48.798;11.770;2024-01-30T12:37:47;12.20;51.50
80495;DHT22;69819;48.798;11.770;2024-01-30T12:40:14;12.20;51.40
80495;DHT22;69819;48.798;11.770;2024-01-30T12:42:41;12.20;51.30
80495;DHT22;69819;48.798;11.770;2024-01-30T12:45:08;12.20;51.40
80495;DHT22;69819;48.798;11.770;2024-01-30T12:47:34;12.30;51.60
80495;DHT22;69819;48.798;11.770;2024-01-30T12:50:00;12.30;51.50
80495;DHT22;69819;48.798;11.770;2024-01-30T12:52:26;12.30;51.60
80495;DHT22;69819;48.798;11.770;2024-01-30T12:54:52;12.30;51.70
80495;DHT22;69819;48.798;11.770;2024-01-30T12:57:18;12.40;51.70
80495;DHT22;69819;48.798;11.770;2024-01-30T12:59:45;12.40;51.60
80495;DHT22;69819;48.798;11.770;2024-01-30T13:02:15;12.50;51.70
80495;DHT22;69819;48.798;11.770;2024-01-30T13:04:41;12.60;51.70
80495;DHT22;69819;48.798;11.770;2024-01-30T13:07:08;12.60;51.70
80495;DHT22;69819;48.798;11.770;2024-01-30T13:09:34;12.60;51.60
80495;DHT22;69819;48.798;11.770;2024-01-30T13:12:00;12.70;51.70
80495;DHT22;69819;48.798;11.770;2024-01-30T13:14:26;12.70;51.60
80495;DHT22;69819;48.798;11.770;2024-01-30T13:16:51;12.80;51.50
80495;DHT22;69819;48.798;11.770;2024-01-30T13:19:18;12.80;51.50
80495;DHT22;69819;48.798;11.770;2024-01-30T13:21:44;12.90;51.50
80495;DHT22;69819;48.798;11.770;2024-01-30T13:24:09;12.90;52.00
80495;DHT22;69819;48.798;11.770;2024-01-30T13:26:36;12.90;51.40
80495;DHT22;69819;48.798;11.770;2024-01-30T13:29:02;12.90;51.40
80495;DHT22;69819;48.798;11.770;2024-01-30T13:31:29;13.00;51.40
80495;DHT22;69819;48.798;11.770;2024-01-30T13:33:55;13.00;51.40
80495;DHT22;69819;48.798;11.770;2024-01-30T13:36:21;13.00;51.40
80495;DHT22;69819;48.798;11.770;2024-01-30T13:38:47;13.10;51.40
80495;DHT22;69819;48.798;11.770;2024-01-30T13:41:14;13.10;51.30
80495;DHT22;69819;48.798;11.770;2024-01-30T13:43:39;13.20;51.40
80495;DHT22;69819;48.798;11.770;2024-01-30T13:46:05;13.20;51.40
80495;DHT22;69819;48.798;11.770;2024-01-30T13:48:31;13.30;51.40
80495;DHT22;69819;48.798;11.770;2024-01-30T13:50:57;13.40;51.50
80495;DHT22;69819;48.798;11.770;2024-01-30T13:53:23;13.40;51.30
80495;DHT22;69819;48.798;11.770;2024-01-30T13:55:49;13.40;51.20
80495;DHT22;69819;48.798;11.770;2024-01-30T13:58:15;13.50;51.30
80495;DHT22;69819;48.798;11.770;2024-01-30T14:00:41;13.50;51.20
80495;DHT22;69819;48.798;11.770;2024-01-30T14:03:06;13.60;51.20
80495;DHT22;69819;48.798;11.770;2024-01-30T14:05:32;13.60;51.20
80495;DHT22;69819;48.798;11.770;2024-01-30T14:07:59;13.60;51.10
80495;DHT22;69819;48.798;11.770;2024-01-30T14:10:26;13.60;51.00
80495;DHT22;69819;48.798;11.770;2024-01-30T14:12:52;13.60;50.80
80495;DHT22;69819;48.798;11.770;2024-01-30T14:15:18;13.60;50.80
80495;DHT22;69819;48.798;11.770;2024-01-30T14:17:44;13.50;51.20
80495;DHT22;69819;48.798;11.770;2024-01-30T14:20:11;13.50;50.60
80495;DHT22;69819;48.798;11.770;2024-01-30T14:22:37;13.40;50.40
80495;DHT22;69819;48.798;11.770;2024-01-30T14:25:03;13.30;50.30
80495;DHT22;69819;48.798;11.770;2024-01-30T14:27:30;13.20;50.20
80495;DHT22;69819;48.798;11.770;2024-01-30T14:29:57;13.10;50.20
80495;DHT22;69819;48.798;11.770;2024-01-30T14:32:24;13.10;50.20
80495;DHT22;69819;48.798;11.770;2024-01-30T14:34:53;12.90;50.10
80495;DHT22;69819;48.798;11.770;2024-01-30T14:37:20;12.80;50.10
80495;DHT22;69819;48.798;11.770;2024-01-30T14:39:46;12.80;50.20
80495;DHT22;69819;48.798;11.770;2024-01-30T14:42:13;12.70;50.20
80495;DHT22;69819;48.798;11.770;2024-01-30T14:44:40;12.60;50.30
80495;DHT22;69819;48.798;11.770;2024-01-30T14:47:06;12.50;50.40
80495;DHT22;69819;48.798;11.770;2024-01-30T14:49:32;12.40;50.50
80495;DHT22;69819;48.798;11.770;2024-01-30T14:51:58;12.40;50.60
80495;DHT22;69819;48.798;11.770;2024-01-30T14:54:24;12.30;50.60
80495;DHT22;69819;48.798;11.770;2024-01-30T14:56:51;12.30;50.70
80495;DHT22;69819;48.798;11.770;2024-01-30T14:59:17;12.20;50.70
80495;DHT22;69819;48.798;11.770;2024-01-30T15:01:43;12.20;50.80
80495;DHT22;69819;48.798;11.770;2024-01-30T15:04:10;12.20;50.90
80495;DHT22;69819;48.798;11.770;2024-01-30T15:06:37;12.20;50.90
80495;DHT22;69819;48.798;11.770;2024-01-30T15:09:03;12.20;50.90
80495;DHT22;69819;48.798;11.770;2024-01-30T15:11:29;12.20;50.90
80495;DHT22;69819;48.798;11.770;2024-01-30T15:13:54;12.20;51.00
80495;DHT22;69819;48.798;11.770;2024-01-30T15:16:20;12.10;50.80
80495;DHT22;69819;48.798;11.770;2024-01-30T15:18:46;12.10;50.80
80495;DHT22;69819;48.798;11.770;2024-01-30T15:21:12;12.10;50.80
80495;DHT22;69819;48.798;11.770;2024-01-30T15:23:37;12.10;50.80
80495;DHT22;69819;48.798;11.770;2024-01-30T15:26:04;12.00;50.70